Latest Weather Observations for Warrnambool

IDV60801

Issued at 3:31 pm EST Saturday 5 September 2015 (issued every 30 minutes, with the page automatically refreshed every 10 minutes)

About weather observations | Map of weather stations | Latest weather observations for VIC | Other Formats
Station Details ID: 090186 Name: WARRNAMBOOL AIRPORT NDB Lat: -38.29 Lon: 142.45 Height: 70.8 m
Data from the previous 72 hours. | See also: Recent months at Warrnambool
Date/Time
EST
Temp
°C
App
Temp
°C
Dew
Point
Rel
Hum
%
Delta-T
°C
Wind Press
QNH
hPa
Press
MSL
hPa
Rain
since 9 am
mm
Dir
 
Spd
km/h
Gust
km/h
Spd
kts
Gust
kts
05/03:30pm 11.5 8.8 9.1 85 1.2 SE 13 17 7 9 1022.2 1022.3 0.0
05/03:00pm 12.0 10.3 9.9 87 1.1 SSE 9 11 5 6 1022.6 1022.7 0.0
05/02:30pm 11.6 9.4 9.2 85 1.2 SSW 11 15 6 8 1022.9 1023.0 0.0
05/02:00pm 11.5 8.9 9.4 87 1.1 S 13 17 7 9 1023.0 1023.1 0.0
05/01:30pm 11.7 9.5 9.3 85 1.2 SSW 11 17 6 9 1023.6 1023.7 0.0
05/01:00pm 12.4 11.3 8.5 77 1.9 WSW 4 9 2 5 1023.7 1023.8 0.0
05/12:30pm 12.6 11.3 9.1 79 1.8 WNW 6 9 3 5 1024.2 1024.3 0.0
05/12:00pm 12.1 10.8 10.0 87 1.1 W 7 11 4 6 1024.5 1024.6 0.0
05/11:30am 11.4 10.4 10.9 97 0.3 WNW 7 9 4 5 1024.8 1024.9 0.0
05/11:00am 10.3 9.3 10.3 100 0.0 W 6 9 3 5 1025.1 1025.2 0.0
05/10:53am 10.4 9.2 10.4 100 0.0 W 7 11 4 6 1025.2 1025.3 0.0
05/10:31am 10.4 8.1 10.4 100 0.0 W 13 20 7 11 1025.3 1025.4 0.0
05/10:30am 10.3 8.0 10.3 100 0.0 W 13 20 7 11 1025.4 1025.5 0.0
05/10:12am 10.6 8.7 10.6 100 0.0 WSW 11 15 6 8 1025.6 1025.7 0.0
05/10:00am 10.8 8.6 10.8 100 0.0 W 13 17 7 9 1025.7 1025.8 0.0
05/09:55am 10.9 8.4 10.9 100 0.0 W 15 20 8 11 1025.7 1025.8 0.0
05/09:54am 11.4 9.0 11.4 100 0.0 W 15 20 8 11 1025.7 1025.8 0.0
05/09:30am 10.1 8.1 10.1 100 0.0 WNW 11 15 6 8 1025.7 1025.8 0.0
05/09:20am 10.0 8.0 10.0 100 0.0 WNW 11 17 6 9 1025.7 1025.8 0.0
05/09:00am 10.0 8.3 10.0 100 0.0 WNW 9 11 5 6 1025.7 1025.8 0.4
05/08:30am 9.3 6.7 9.3 100 0.0 NW 13 17 7 9 1025.5 1025.6 0.4
05/08:00am 8.8 5.7 8.8 100 0.0 NW 15 19 8 10 1025.4 1025.5 0.4
05/07:30am 8.5 5.7 8.5 100 0.0 NNW 13 17 7 9 1025.2 1025.3 0.4
05/07:00am 8.3 5.4 8.3 100 0.0 NW 13 15 7 8 1025.1 1025.2 0.4
05/06:30am 8.3 5.8 8.3 100 0.0 NW 11 13 6 7 1025.0 1025.1 0.4
05/06:00am 8.2 5.3 8.2 100 0.0 WNW 13 17 7 9 1024.9 1025.0 0.4
05/05:30am 7.8 5.6 7.8 100 0.0 NW 9 15 5 8 1024.5 1024.6 0.4
05/05:00am 8.0 5.5 8.0 100 0.0 NW 11 15 6 8 1024.3 1024.4 0.4
05/04:30am 8.4 5.9 8.4 100 0.0 W 11 15 6 8 1024.1 1024.2 0.4
05/04:24am 8.5 6.1 8.5 100 0.0 W 11 13 6 7 1024.0 1024.1 0.4
05/04:12am 8.4 6.3 8.4 100 0.0 WNW 9 13 5 7 1024.0 1024.1 0.4
05/04:00am 8.2 5.7 8.2 100 0.0 WNW 11 17 6 9 1024.0 1024.1 0.4
05/03:33am 8.2 5.7 8.2 100 0.0 NW 11 17 6 9 1023.9 1024.0 0.4
05/03:30am 8.2 5.7 8.2 100 0.0 NW 11 17 6 9 1023.9 1024.0 0.4
05/03:17am 8.4 6.7 8.4 100 0.0 NW 7 11 4 6 1024.0 1024.1 0.4
05/03:00am 8.5 6.8 8.5 100 0.0 NW 7 11 4 6 1024.1 1024.2 0.2
05/02:36am 8.4 6.7 8.4 100 0.0 NW 7 7 4 4 1024.4 1024.5 0.2
05/02:30am 8.3 6.6 8.3 100 0.0 NNW 7 9 4 5 1024.4 1024.5 0.2
05/02:16am 8.5 7.0 8.5 100 0.0 NW 6 9 3 5 1024.4 1024.5 0.2
05/02:01am 8.6 8.3 8.6 100 0.0 CALM 0 7 0 4 1024.5 1024.6 0.2
05/02:00am 8.6 8.3 8.6 100 0.0 CALM 0 6 0 3 1024.5 1024.6 0.2
05/01:59am 8.6 8.3 8.6 100 0.0 CALM 0 6 0 3 1024.5 1024.6 0.2
05/01:38am 8.6 7.0 8.6 100 0.0 WNW 7 9 4 5 1024.7 1024.8 0.0
05/01:30am 8.6 7.1 8.6 100 0.0 WNW 6 9 3 5 1024.7 1024.8 0.0
05/01:26am 8.7 7.3 8.7 100 0.0 WNW 6 9 3 5 1024.7 1024.8 0.0
05/01:00am 8.6 7.1 8.6 100 0.0 WNW 6 9 3 5 1024.9 1025.0 0.0
05/12:30am 8.8 7.2 8.8 100 0.0 WNW 7 11 4 6 1025.1 1025.2 0.0
05/12:00am 8.8 6.4 8.8 100 0.0 NW 11 15 6 8 1025.4 1025.5 0.0
 
Date/Time
EST
Temp
°C
App
Temp
°C
Dew
Point
Rel
Hum
%
Delta-T
°C
Wind Press
QNH
hPa
Press
MSL
hPa
Rain
since 9 am
mm
Dir
 
Spd
km/h
Gust
km/h
Spd
kts
Gust
kts
04/11:30pm 8.8 6.4 8.8 100 0.0 NW 11 15 6 8 1025.7 1025.8 0.0
04/11:00pm 8.8 6.8 8.8 100 0.0 NW 9 13 5 7 1026.0 1026.1 0.0
04/10:30pm 8.6 5.8 8.6 100 0.0 WNW 13 17 7 9 1026.2 1026.3 0.0
04/10:00pm 8.6 6.2 8.6 100 0.0 WNW 11 13 6 7 1026.1 1026.2 0.0
04/09:34pm 8.6 6.6 8.6 100 0.0 W 9 13 5 7 1026.1 1026.2 0.0
04/09:30pm 8.6 6.6 8.6 100 0.0 W 9 15 5 8 1026.1 1026.2 0.0
04/09:13pm 8.9 5.4 8.9 100 0.0 WSW 17 24 9 13 1026.2 1026.3 0.0
04/09:12pm 8.9 5.4 8.9 100 0.0 WSW 17 24 9 13 1026.2 1026.3 0.0
04/09:00pm 8.9 5.4 8.9 100 0.0 W 17 24 9 13 1026.1 1026.2 0.0
04/08:57pm 8.9 5.1 8.9 100 0.0 W 19 24 10 13 1026.1 1026.2 0.0
04/08:30pm 9.4 5.8 8.5 94 0.4 WSW 17 26 9 14 1025.9 1026.0 0.0
04/08:00pm 9.5 6.6 6.6 82 1.3 W 11 13 6 7 1025.6 1025.7 0.0
04/07:30pm 9.5 6.6 6.6 82 1.4 W 11 13 6 7 1025.7 1025.8 0.0
04/07:00pm 9.6 6.9 7.2 85 1.1 W 11 17 6 9 1025.7 1025.8 0.0
04/06:30pm 9.7 7.3 7.0 83 1.3 W 9 13 5 7 1025.5 1025.6 0.0
04/06:00pm 10.0 6.3 6.5 79 1.6 W 15 19 8 10 1025.4 1025.5 0.0
04/05:30pm 10.4 5.9 6.2 75 2.0 WSW 19 24 10 13 1025.3 1025.4 0.0
04/05:00pm 10.8 5.8 6.4 74 2.1 SW 22 30 12 16 1025.2 1025.3 0.0
04/04:30pm 10.7 5.6 5.9 72 2.2 SW 22 26 12 14 1025.0 1025.1 0.0
04/04:00pm 11.3 5.8 6.0 70 2.5 SW 24 28 13 15 1025.0 1025.1 0.0
04/03:30pm 11.3 5.5 6.4 72 2.3 SW 26 32 14 17 1024.9 1025.0 0.0
04/03:00pm 11.1 5.8 6.6 74 2.1 SW 24 30 13 16 1025.0 1025.1 0.0
04/02:30pm 11.7 7.2 6.8 72 2.3 WSW 20 28 11 15 1024.9 1025.0 0.0
04/02:00pm 12.2 7.4 5.6 64 3.1 SW 20 30 11 16 1025.1 1025.2 0.0
04/01:30pm 11.6 6.6 6.3 70 2.5 WSW 22 30 12 16 1025.4 1025.5 0.0
04/01:00pm 11.6 6.1 5.9 68 2.7 WSW 24 32 13 17 1025.6 1025.7 0.0
04/12:30pm 11.3 6.4 5.2 66 2.8 SW 20 26 11 14 1025.9 1026.0 0.0
04/12:00pm 11.6 7.0 6.3 70 2.5 W 20 26 11 14 1026.3 1026.4 0.0
04/11:30am 11.4 6.6 5.7 68 2.7 WSW 20 24 11 13 1026.6 1026.7 0.0
04/11:00am 11.5 7.4 6.0 69 2.6 WSW 17 24 9 13 1026.8 1026.9 0.0
04/10:30am 11.2 6.4 5.7 69 2.6 W 20 28 11 15 1027.0 1027.1 0.0
04/10:00am 10.7 6.9 7.4 80 1.6 W 17 20 9 11 1026.9 1027.0 0.0
04/09:30am 9.3 6.3 7.6 89 0.8 WNW 13 17 7 9 1026.9 1027.0 0.0
04/09:00am 8.8 6.1 7.4 91 0.7 WNW 11 15 6 8 1026.9 1027.0 0.0
04/08:30am 7.5 4.4 7.1 97 0.2 NW 13 17 7 9 1026.8 1026.9 0.0
04/08:00am 6.7 3.8 6.6 99 0.0 NW 11 13 6 7 1026.5 1026.6 0.0
04/07:30am 6.0 2.9 5.7 98 0.1 NW 11 15 6 8 1026.1 1026.2 0.0
04/07:00am 5.2 1.6 5.1 99 0.0 NW 13 15 7 8 1025.8 1025.9 0.0
04/06:30am 3.0 -0.2 2.9 99 0.0 NW 9 13 5 7 1025.7 1025.8 0.0
04/06:00am 4.2 0.8 4.1 99 0.0 NW 11 13 6 7 1025.5 1025.6 0.0
04/05:30am 4.2 1.2 4.1 99 0.0 NW 9 11 5 6 1025.3 1025.4 0.0
04/05:00am 3.1 0.3 3.0 99 0.0 NW 7 9 4 5 1025.1 1025.2 0.0
04/04:30am 3.8 1.1 3.7 99 0.0 WNW 7 9 4 5 1024.8 1024.9 0.0
04/04:00am 4.5 1.9 4.4 99 0.0 WNW 7 9 4 5 1024.8 1024.9 0.0
04/03:30am 3.1 0.3 3.0 99 0.0 W 7 9 4 5 1024.8 1024.9 0.0
04/03:00am 3.7 0.9 3.3 97 0.2 W 7 9 4 5 1024.7 1024.8 0.0
04/02:30am 4.4 1.6 3.2 92 0.5 SSW 7 9 4 5 1024.9 1025.0 0.0
04/02:00am 5.2 1.7 3.4 88 0.7 SW 11 11 6 6 1025.1 1025.2 0.0
04/01:30am 5.8 2.9 4.8 93 0.4 WSW 9 11 5 6 1025.2 1025.3 0.0
04/01:00am 4.9 1.7 3.1 88 0.7 WSW 9 9 5 5 1025.1 1025.2 0.0
04/12:30am 4.8 1.1 2.5 85 0.9 SSW 11 11 6 6 1025.0 1025.1 0.0
04/12:00am 6.1 2.6 3.4 83 1.1 S 11 13 6 7 1025.0 1025.1 0.0
 
Date/Time
EST
Temp
°C
App
Temp
°C
Dew
Point
Rel
Hum
%
Delta-T
°C
Wind Press
QNH
hPa
Press
MSL
hPa
Rain
since 9 am
mm
Dir
 
Spd
km/h
Gust
km/h
Spd
kts
Gust
kts
03/11:30pm 6.5 3.0 3.5 81 1.3 S 11 13 6 7 1024.9 1025.0 0.0
03/11:00pm 7.8 4.1 4.7 81 1.4 S 13 17 7 9 1024.8 1024.9 0.0
03/10:30pm 8.4 4.5 5.3 81 1.4 S 15 20 8 11 1024.8 1024.9 0.0
03/10:00pm 7.5 4.1 6.0 90 0.7 S 13 13 7 7 1024.6 1024.7 0.0
03/09:30pm 6.3 2.9 4.1 86 0.9 SW 11 11 6 6 1024.4 1024.5 0.0
03/09:00pm 5.6 1.6 3.1 84 1.0 SSW 13 13 7 7 1024.1 1024.2 0.0
03/08:30pm 6.8 2.8 4.8 87 0.9 S 15 19 8 10 1024.0 1024.1 0.0
03/08:00pm 6.1 2.3 3.9 86 0.9 S 13 15 7 8 1023.8 1023.9 0.0
03/07:30pm 7.6 3.2 4.9 83 1.2 S 17 20 9 11 1023.4 1023.5 0.0
03/07:00pm 8.7 4.6 6.0 83 1.2 S 17 22 9 12 1023.1 1023.2 0.0
03/06:30pm 9.9 5.4 6.2 78 1.7 S 19 20 10 11 1022.7 1022.8 0.0
03/06:00pm 10.3 5.8 6.8 79 1.6 S 20 26 11 14 1022.2 1022.3 0.0
03/05:30pm 10.6 6.3 7.8 83 1.4 SSE 20 28 11 15 1021.7 1021.8 0.0
03/05:00pm 10.8 5.8 7.9 82 1.4 SSE 24 30 13 16 1021.3 1021.4 0.0
03/04:30pm 11.3 6.2 7.8 79 1.7 S 24 30 13 16 1020.9 1021.0 0.0
03/04:00pm 11.6 6.6 7.9 78 1.8 S 24 32 13 17 1020.7 1020.8 0.0
03/03:30pm 11.8 6.5 8.5 80 1.6 SSE 26 33 14 18 1020.4 1020.5 0.0
03/03:00pm 11.9 6.8 9.3 84 1.3 S 26 35 14 19 1019.9 1020.0 0.0
03/02:41pm 11.5 7.4 11.3 99 0.1 SSE 24 30 13 16 1019.7 1019.7 0.0
03/02:30pm 11.4 7.7 11.4 100 0.0 SSE 22 32 12 17 1019.6 1019.6 0.0
03/02:28pm 11.2 7.8 11.2 100 0.0 SSE 20 32 11 17 1019.5 1019.5 0.0
03/02:27pm 11.1 7.7 11.1 100 0.0 S 20 30 11 16 1019.5 1019.5 0.0
03/02:09pm 10.9 5.4 10.7 99 0.1 S 30 41 16 22 1019.4 1019.4 0.0
03/02:00pm 11.6 6.3 11.1 97 0.3 SSE 30 39 16 21 1019.2 1019.2 0.0
03/01:30pm 12.4 8.4 11.9 97 0.3 S 24 32 13 17 1018.9 1018.9 0.0
03/01:00pm 11.9 7.1 11.6 98 0.2 S 28 39 15 21 1018.8 1018.8 0.0
03/12:34pm 11.5 6.3 10.4 93 0.6 SSE 28 46 15 25 1018.7 1018.7 0.0
03/12:30pm 12.0 7.6 10.4 90 0.8 SSE 24 32 13 17 1018.7 1018.7 0.0
03/12:00pm 11.6 5.7 10.3 92 0.7 SSE 32 39 17 21 1018.6 1018.6 0.0
03/11:31am 11.4 5.7 11.2 99 0.1 SSE 32 41 17 22 1018.3 1018.3 0.0
03/11:30am 11.4 5.7 11.2 99 0.1 SSE 32 39 17 21 1018.3 1018.3 0.0
03/11:00am 11.5 5.8 11.3 99 0.1 SSE 32 41 17 22 1017.9 1017.9 0.0
03/10:30am 12.0 6.9 11.8 99 0.1 S 30 39 16 21 1017.4 1017.4 0.0
03/10:00am 12.1 7.0 11.9 99 0.1 SSE 30 37 16 20 1017.0 1017.0 0.0
03/09:56am 12.0 6.9 11.8 99 0.1 SSE 30 37 16 20 1017.0 1017.0 0.0
03/09:38am 12.3 8.0 12.1 99 0.1 S 26 37 14 20 1016.5 1016.5 0.0
03/09:30am 12.2 7.9 12.2 100 0.0 S 26 35 14 19 1016.5 1016.5 0.0
03/09:00am 12.1 9.0 12.1 100 0.0 S 20 28 11 15 1016.0 1016.0 6.0
03/08:30am 12.1 8.6 12.1 100 0.0 S 22 30 12 16 1015.3 1015.3 6.0
03/08:20am 12.0 8.4 12.0 100 0.0 S 22 30 12 16 1015.1 1015.1 6.0
03/08:00am 11.8 8.2 11.8 100 0.0 S 22 32 12 17 1014.7 1014.7 6.0
03/07:30am 11.5 8.2 11.5 100 0.0 S 20 28 11 15 1013.9 1013.9 6.0
03/07:00am 11.3 7.9 11.3 100 0.0 S 20 26 11 14 1013.1 1013.1 6.0
03/06:48am 11.2 8.0 11.2 100 0.0 S 19 24 10 13 1012.6 1012.7 6.0
03/06:30am 11.2 7.8 11.2 100 0.0 S 20 24 11 13 1012.2 1012.3 6.0
03/06:00am 11.2 7.8 11.2 100 0.0 S 20 26 11 14 1011.7 1011.8 6.0
03/05:46am 11.1 7.7 11.1 100 0.0 S 20 24 11 13 1011.5 1011.6 6.0
03/05:30am 10.9 8.0 10.9 100 0.0 S 17 20 9 11 1011.1 1011.2 6.0
03/05:00am 10.6 7.2 10.6 100 0.0 S 19 24 10 13 1010.6 1010.7 6.0
03/04:49am 10.5 7.1 10.5 100 0.0 S 19 26 10 14 1010.5 1010.6 6.0
03/04:30am 10.6 7.0 10.6 100 0.0 S 20 28 11 15 1010.2 1010.3 6.0
03/04:21am 10.5 8.2 10.5 100 0.0 S 13 20 7 11 1010.1 1010.2 6.0
03/04:00am 9.6 7.5 9.6 100 0.0 S 11 13 6 7 1009.9 1010.0 6.0
03/03:53am 9.4 7.2 9.4 100 0.0 S 11 13 6 7 1009.8 1009.9 6.0
03/03:30am 9.5 7.3 9.5 100 0.0 S 11 13 6 7 1009.7 1009.8 6.0
03/03:15am 9.8 7.7 9.8 100 0.0 SSE 11 15 6 8 1009.6 1009.7 6.0
03/03:12am 9.7 7.6 9.7 100 0.0 SSE 11 13 6 7 1009.5 1009.6 6.0
03/03:00am 9.9 7.8 9.9 100 0.0 SSE 11 15 6 8 1009.3 1009.4 6.0
03/02:30am 10.3 7.2 10.3 100 0.0 S 17 20 9 11 1009.7 1009.8 6.0
03/02:08am 10.2 7.5 10.2 100 0.0 S 15 20 8 11 1009.6 1009.7 6.0
03/02:04am 10.2 7.1 10.2 100 0.0 S 17 20 9 11 1009.6 1009.7 6.0
03/02:00am 10.2 6.7 10.2 100 0.0 S 19 22 10 12 1009.7 1009.8 5.8
03/01:30am 10.2 7.1 10.2 100 0.0 S 17 22 9 12 1009.7 1009.8 5.2
03/01:20am 10.0 6.8 10.0 100 0.0 S 17 22 9 12 1009.5 1009.6 5.2
03/01:00am 10.2 7.1 10.2 100 0.0 S 17 20 9 11 1009.3 1009.4 5.0
03/12:52am 10.3 7.2 10.3 100 0.0 S 17 20 9 11 1009.3 1009.4 4.8
03/12:30am 9.9 7.1 9.9 100 0.0 SSW 15 17 8 9 1009.2 1009.3 4.6
03/12:22am 9.9 7.1 9.9 100 0.0 SSW 15 17 8 9 1009.1 1009.2 4.4
03/12:00am 9.5 6.2 9.5 100 0.0 SW 17 19 9 10 1008.8 1008.9 4.0
 
Date/Time
EST
Temp
°C
App
Temp
°C
Dew
Point
Rel
Hum
%
Delta-T
°C
Wind Press
QNH
hPa
Press
MSL
hPa
Rain
since 9 am
mm
Dir
 
Spd
km/h
Gust
km/h
Spd
kts
Gust
kts
02/11:30pm 9.4 8.9 9.4 100 0.0 SSE 2 11 1 6 1008.5 1008.6 4.0
02/11:00pm 9.5 8.3 9.5 100 0.0 E 6 7 3 4 1008.3 1008.4 4.0
02/10:30pm 9.6 8.2 9.6 100 0.0 E 7 9 4 5 1008.2 1008.3 3.8
02/10:00pm 9.6 8.4 9.6 100 0.0 ESE 6 9 3 5 1008.1 1008.2 3.8
02/09:30pm 9.6 8.4 9.6 100 0.0 ESE 6 9 3 5 1008.0 1008.1 3.8
02/09:00pm 9.7 8.3 9.7 100 0.0 E 7 11 4 6 1007.9 1007.9 3.8
02/08:30pm 9.9 8.2 9.9 100 0.0 ENE 9 13 5 7 1007.8 1007.8 3.6
02/08:00pm 10.0 7.2 10.0 100 0.0 ENE 15 20 8 11 1007.5 1007.5 3.4
02/07:30pm 10.1 7.7 10.1 100 0.0 ENE 13 20 7 11 1007.4 1007.4 3.4
02/07:00pm 10.0 7.6 10.0 100 0.0 ENE 13 20 7 11 1007.0 1007.0 3.2
02/06:30pm 9.9 7.5 9.9 100 0.0 NE 13 15 7 8 1006.9 1006.9 3.2
02/06:00pm 10.0 8.0 10.0 100 0.0 NE 11 19 6 10 1006.5 1006.5 3.2
02/05:30pm 10.0 7.6 9.9 99 0.1 ENE 13 20 7 11 1006.0 1006.0 2.8
02/05:00pm 10.3 6.8 10.1 99 0.1 NE 19 26 10 14 1006.1 1006.1 1.8
02/04:30pm 10.7 6.5 9.8 94 0.5 NE 22 30 12 16 1006.4 1006.4 1.4
02/04:00pm 11.5 8.7 10.1 91 0.7 NNE 15 22 8 12 1006.5 1006.5 1.2

Other Formats:

Comma delimited format used in spreadsheet applications
http://www.bom.gov.au/fwo/IDV60801/IDV60801.94837.axf

JavaScript Object Notation format (JSON) in row-major order
http://www.bom.gov.au/fwo/IDV60801/IDV60801.94837.json